Time;durP1;ratioP1;P1;durP2;ratioP2;P2;SDS_P1;SDS_P2;PMS_P1;PMS_P2;Temp;Humidity;BMP_temperature;BMP_pressure;BME280_temperature;BME280_humidity;BME280_pressure;Samples;Min_cycle;Max_cycle;Signal;HPM_P1;HPM_P2
2021/05/09 00:01:38;;;;;;;;;;;18.60;44.10;;;;;;491524;240;1070;-44
2021/05/09 00:03:40;;;;;;;;;;;18.50;44.50;;;;;;491667;240;1044;-44
2021/05/09 00:05:41;;;;;;;;;;;18.40;44.70;;;;;;491556;240;1280;-44
2021/05/09 00:07:42;;;;;;;;;;;18.40;44.80;;;;;;491617;240;1118;-44
2021/05/09 00:09:44;;;;;;;;;;;18.40;44.70;;;;;;491495;240;1073;-44
2021/05/09 00:11:45;;;;;;;;;;;18.30;45.00;;;;;;491659;240;1069;-44
2021/05/09 00:13:46;;;;;;;;;;;18.30;45.10;;;;;;491543;240;1096;-43
2021/05/09 00:15:49;;;;;;;;;;;18.20;45.20;;;;;;491481;240;2141;-44
2021/05/09 00:17:49;;;;;;;;;;;18.20;45.30;;;;;;491461;240;1393;-44
2021/05/09 00:19:50;;;;;;;;;;;18.20;45.30;;;;;;492001;240;1374;-44
2021/05/09 00:21:51;;;;;;;;;;;18.10;45.30;;;;;;491441;240;1215;-43
2021/05/09 00:23:53;;;;;;;;;;;18.10;45.40;;;;;;491685;240;1206;-44
2021/05/09 00:25:54;;;;;;;;;;;18.10;45.40;;;;;;491974;240;1209;-44
2021/05/09 00:27:55;;;;;;;;;;;18.00;45.60;;;;;;492019;240;1069;-43
2021/05/09 00:29:56;;;;;;;;;;;18.00;45.60;;;;;;491971;240;1096;-44
2021/05/09 00:31:58;;;;;;;;;;;18.00;45.80;;;;;;492048;240;1425;-44
2021/05/09 00:33:59;;;;;;;;;;;17.90;45.80;;;;;;491481;240;1093;-43
2021/05/09 00:36:00;;;;;;;;;;;18.00;45.70;;;;;;491422;240;2204;-44
2021/05/09 00:38:02;;;;;;;;;;;17.90;45.80;;;;;;491431;240;1618;-44
2021/05/09 00:40:03;;;;;;;;;;;17.90;45.90;;;;;;491831;240;1104;-44
2021/05/09 00:42:04;;;;;;;;;;;17.90;45.80;;;;;;491383;240;1232;-44
2021/05/09 00:44:05;;;;;;;;;;;17.90;45.90;;;;;;491512;240;1061;-44
2021/05/09 00:46:07;;;;;;;;;;;17.90;45.90;;;;;;491435;240;1482;-43
2021/05/09 00:48:08;;;;;;;;;;;18.00;45.80;;;;;;491681;240;1235;-44
2021/05/09 00:50:09;;;;;;;;;;;17.90;45.90;;;;;;491598;240;1042;-44
2021/05/09 00:52:11;;;;;;;;;;;17.90;46.00;;;;;;491405;242;2011;-44
2021/05/09 00:54:16;;;;;;;;;;;17.90;45.90;;;;;;491630;240;1175;-44
2021/05/09 00:56:18;;;;;;;;;;;17.90;45.90;;;;;;491822;240;2192;-44
2021/05/09 00:58:19;;;;;;;;;;;17.90;45.90;;;;;;491586;240;1398;-44
2021/05/09 01:00:20;;;;;;;;;;;17.90;45.90;;;;;;491590;240;1062;-44
2021/05/09 01:02:23;;;;;;;;;;;17.90;45.80;;;;;;491485;240;1126;-43
2021/05/09 01:04:26;;;;;;;;;;;17.90;45.90;;;;;;491625;240;1105;-44
2021/05/09 01:06:27;;;;;;;;;;;17.80;46.10;;;;;;491803;240;1222;-44
2021/05/09 01:08:29;;;;;;;;;;;17.80;46.20;;;;;;491407;240;1155;-44
2021/05/09 01:10:30;;;;;;;;;;;17.80;46.10;;;;;;491457;240;1100;-44
2021/05/09 01:12:31;;;;;;;;;;;17.80;46.10;;;;;;491861;240;1136;-44
2021/05/09 01:14:32;;;;;;;;;;;17.80;46.00;;;;;;492026;240;999;-44
2021/05/09 01:16:34;;;;;;;;;;;17.80;46.00;;;;;;491798;242;2185;-44
2021/05/09 01:18:35;;;;;;;;;;;17.90;46.00;;;;;;492043;240;972;-44
2021/05/09 01:20:36;;;;;;;;;;;17.80;46.00;;;;;;492052;240;1018;-44
2021/05/09 01:22:38;;;;;;;;;;;17.80;46.00;;;;;;491567;240;1077;-44
2021/05/09 01:24:39;;;;;;;;;;;17.80;46.10;;;;;;491683;240;1169;-44
2021/05/09 01:26:41;;;;;;;;;;;17.80;46.00;;;;;;491856;240;1123;-44
2021/05/09 01:28:41;;;;;;;;;;;17.80;45.90;;;;;;491716;240;2370;-44
2021/05/09 01:30:43;;;;;;;;;;;17.80;46.00;;;;;;491558;240;1149;-44
2021/05/09 01:32:44;;;;;;;;;;;17.80;46.10;;;;;;491570;240;2094;-43
2021/05/09 01:34:45;;;;;;;;;;;17.80;46.10;;;;;;491697;240;1206;-44
2021/05/09 01:36:46;;;;;;;;;;;17.70;46.20;;;;;;491769;240;2145;-44
2021/05/09 01:38:48;;;;;;;;;;;17.70;46.40;;;;;;491863;240;1169;-44
2021/05/09 01:40:49;;;;;;;;;;;17.70;46.40;;;;;;492005;242;1545;-44
2021/05/09 01:42:50;;;;;;;;;;;17.70;46.30;;;;;;491538;240;1187;-44
2021/05/09 01:44:52;;;;;;;;;;;17.70;46.20;;;;;;491705;240;1065;-44
2021/05/09 01:46:53;;;;;;;;;;;17.70;46.10;;;;;;491776;240;1285;-44
2021/05/09 01:48:54;;;;;;;;;;;17.70;46.20;;;;;;492069;240;1074;-44
2021/05/09 01:50:55;;;;;;;;;;;17.70;46.10;;;;;;491490;242;1391;-44
2021/05/09 01:52:57;;;;;;;;;;;17.60;46.20;;;;;;492019;240;1098;-44
2021/05/09 01:54:58;;;;;;;;;;;17.70;46.10;;;;;;491543;240;2061;-44
2021/05/09 01:57:00;;;;;;;;;;;17.70;46.10;;;;;;491608;240;2137;-44
2021/05/09 01:59:02;;;;;;;;;;;17.70;46.20;;;;;;491941;240;1183;-44
2021/05/09 02:01:03;;;;;;;;;;;17.70;46.30;;;;;;491805;240;1036;-44
2021/05/09 02:03:04;;;;;;;;;;;17.70;46.20;;;;;;491744;240;1142;-44
2021/05/09 02:05:06;;;;;;;;;;;17.60;46.20;;;;;;491562;240;1104;-44
2021/05/09 02:07:07;;;;;;;;;;;17.70;46.30;;;;;;491835;240;1091;-44
2021/05/09 02:09:08;;;;;;;;;;;17.70;46.10;;;;;;491734;240;1292;-44
2021/05/09 02:11:10;;;;;;;;;;;17.70;46.10;;;;;;491558;240;1170;-44
2021/05/09 02:13:11;;;;;;;;;;;17.70;46.20;;;;;;491771;240;1043;-44
2021/05/09 02:15:12;;;;;;;;;;;17.70;46.10;;;;;;491768;240;1199;-44
2021/05/09 02:17:13;;;;;;;;;;;17.70;46.20;;;;;;491633;240;2132;-44
2021/05/09 02:19:15;;;;;;;;;;;17.70;46.30;;;;;;492066;240;1030;-44
2021/05/09 02:21:16;;;;;;;;;;;17.60;46.40;;;;;;491595;240;1132;-44
2021/05/09 02:23:17;;;;;;;;;;;17.50;46.40;;;;;;491511;240;1138;-44
2021/05/09 02:25:18;;;;;;;;;;;17.70;46.30;;;;;;491491;240;1554;-44
2021/05/09 02:27:20;;;;;;;;;;;17.70;46.30;;;;;;491433;240;1055;-44
2021/05/09 02:29:21;;;;;;;;;;;17.60;46.30;;;;;;491472;240;1239;-44
2021/05/09 02:31:22;;;;;;;;;;;17.60;46.30;;;;;;491440;240;1245;-44
2021/05/09 02:33:25;;;;;;;;;;;17.60;46.40;;;;;;491636;240;1077;-44
2021/05/09 02:35:26;;;;;;;;;;;17.60;46.30;;;;;;492060;240;1405;-44
2021/05/09 02:37:30;;;;;;;;;;;17.60;46.30;;;;;;491639;240;2141;-44
2021/05/09 02:39:32;;;;;;;;;;;17.60;46.20;;;;;;491489;240;1167;-44
2021/05/09 02:41:33;;;;;;;;;;;17.80;46.00;;;;;;491907;240;1177;-44
2021/05/09 02:43:34;;;;;;;;;;;17.80;45.80;;;;;;491986;240;1047;-44
2021/05/09 02:45:35;;;;;;;;;;;17.90;45.60;;;;;;491513;240;1467;-44
2021/05/09 02:47:37;;;;;;;;;;;17.90;45.50;;;;;;491488;240;1192;-44
2021/05/09 02:49:39;;;;;;;;;;;18.00;45.40;;;;;;492018;240;1050;-44
2021/05/09 02:51:41;;;;;;;;;;;18.00;45.40;;;;;;491475;240;1179;-44
2021/05/09 02:53:42;;;;;;;;;;;18.00;45.40;;;;;;491824;240;1061;-44
2021/05/09 02:55:43;;;;;;;;;;;18.00;45.40;;;;;;491600;240;1197;-44
2021/05/09 02:57:44;;;;;;;;;;;18.00;45.30;;;;;;491545;240;2192;-44
2021/05/09 02:59:46;;;;;;;;;;;18.00;45.40;;;;;;491514;240;1229;-44
2021/05/09 03:01:47;;;;;;;;;;;18.00;45.50;;;;;;491968;240;1139;-44
2021/05/09 03:03:48;;;;;;;;;;;18.00;45.40;;;;;;491513;240;1398;-44
2021/05/09 03:05:50;;;;;;;;;;;17.90;45.40;;;;;;492024;240;1038;-44
2021/05/09 03:07:51;;;;;;;;;;;18.00;45.40;;;;;;491586;240;1145;-44
2021/05/09 03:09:52;;;;;;;;;;;18.00;45.40;;;;;;491357;241;1966;-44
2021/05/09 03:11:53;;;;;;;;;;;18.00;45.50;;;;;;491741;240;1047;-44
2021/05/09 03:13:55;;;;;;;;;;;17.90;45.40;;;;;;491760;240;1095;-44
2021/05/09 03:15:56;;;;;;;;;;;17.90;45.50;;;;;;491503;240;1089;-44
2021/05/09 03:17:57;;;;;;;;;;;17.90;45.50;;;;;;491510;240;2196;-44
2021/05/09 03:19:59;;;;;;;;;;;17.90;45.50;;;;;;491654;240;1015;-44
2021/05/09 03:22:00;;;;;;;;;;;17.90;45.40;;;;;;491909;240;1111;-44
2021/05/09 03:24:01;;;;;;;;;;;17.90;45.40;;;;;;491962;240;1047;-44
2021/05/09 03:26:02;;;;;;;;;;;18.00;45.40;;;;;;491599;240;1206;-44
2021/05/09 03:28:04;;;;;;;;;;;17.90;45.40;;;;;;491536;240;1003;-44
2021/05/09 03:30:05;;;;;;;;;;;17.90;45.50;;;;;;492061;240;1304;-44
2021/05/09 03:32:06;;;;;;;;;;;18.00;45.40;;;;;;491606;240;1246;-44
2021/05/09 03:34:08;;;;;;;;;;;18.00;45.40;;;;;;491559;240;1110;-44
2021/05/09 03:36:09;;;;;;;;;;;18.00;45.40;;;;;;491940;239;1312;-44
2021/05/09 03:38:10;;;;;;;;;;;18.00;45.40;;;;;;491596;240;2195;-44
2021/05/09 03:40:11;;;;;;;;;;;18.00;45.40;;;;;;491811;240;1251;-44
2021/05/09 03:42:13;;;;;;;;;;;17.90;45.40;;;;;;491486;240;1149;-43
2021/05/09 03:44:14;;;;;;;;;;;18.00;45.40;;;;;;491537;240;1104;-43
2021/05/09 03:46:15;;;;;;;;;;;18.00;45.40;;;;;;491923;240;1251;-44
2021/05/09 03:48:17;;;;;;;;;;;18.00;45.50;;;;;;491489;242;1314;-44
2021/05/09 03:50:18;;;;;;;;;;;17.90;45.50;;;;;;491475;240;1081;-44
2021/05/09 03:52:19;;;;;;;;;;;17.90;45.50;;;;;;491901;240;1566;-44
2021/05/09 03:54:21;;;;;;;;;;;18.00;45.50;;;;;;491559;240;1184;-44
2021/05/09 03:56:22;;;;;;;;;;;18.00;45.40;;;;;;491567;240;2179;-44
2021/05/09 03:58:24;;;;;;;;;;;18.00;45.40;;;;;;491948;240;1194;-44
2021/05/09 04:00:25;;;;;;;;;;;18.00;45.40;;;;;;491983;242;1972;-44
2021/05/09 04:02:26;;;;;;;;;;;18.00;45.30;;;;;;491672;241;1363;-44
2021/05/09 04:04:27;;;;;;;;;;;18.00;45.30;;;;;;492028;240;1081;-44
2021/05/09 04:06:29;;;;;;;;;;;18.00;45.30;;;;;;491935;240;1142;-43
2021/05/09 04:08:30;;;;;;;;;;;18.00;45.40;;;;;;491822;240;1086;-44
2021/05/09 04:10:33;;;;;;;;;;;18.00;45.40;;;;;;491612;240;1252;-44
2021/05/09 04:12:34;;;;;;;;;;;18.00;45.30;;;;;;491644;240;1114;-44
2021/05/09 04:14:36;;;;;;;;;;;18.00;45.30;;;;;;491448;242;1564;-44
2021/05/09 04:16:37;;;;;;;;;;;18.00;45.30;;;;;;491629;240;2179;-44
2021/05/09 04:18:38;;;;;;;;;;;18.00;45.30;;;;;;491511;240;1026;-44
2021/05/09 04:20:39;;;;;;;;;;;18.00;45.40;;;;;;491487;240;1157;-44
2021/05/09 04:22:41;;;;;;;;;;;18.00;45.40;;;;;;491709;240;1082;-44
2021/05/09 04:24:42;;;;;;;;;;;18.00;45.40;;;;;;491773;240;1086;-44
2021/05/09 04:26:45;;;;;;;;;;;18.00;45.50;;;;;;491570;240;1249;-44
2021/05/09 04:28:47;;;;;;;;;;;18.00;45.50;;;;;;492011;240;1090;-44
2021/05/09 04:30:48;;;;;;;;;;;18.00;45.40;;;;;;492012;240;1102;-44
2021/05/09 04:32:49;;;;;;;;;;;18.00;45.40;;;;;;491541;240;1056;-44
2021/05/09 04:34:50;;;;;;;;;;;18.00;45.40;;;;;;491884;240;977;-44
2021/05/09 04:36:52;;;;;;;;;;;18.00;45.30;;;;;;491541;240;2140;-44
2021/05/09 04:38:53;;;;;;;;;;;18.00;45.30;;;;;;491718;240;1084;-43
2021/05/09 04:40:54;;;;;;;;;;;18.00;45.40;;;;;;491831;240;1260;-44
2021/05/09 04:42:56;;;;;;;;;;;18.00;45.40;;;;;;491908;242;1319;-44
2021/05/09 04:44:57;;;;;;;;;;;18.00;45.40;;;;;;491983;240;1175;-44
2021/05/09 04:46:58;;;;;;;;;;;18.00;45.40;;;;;;491535;240;1097;-44
2021/05/09 04:48:59;;;;;;;;;;;18.00;45.50;;;;;;491800;240;1067;-44
2021/05/09 04:51:01;;;;;;;;;;;18.00;45.50;;;;;;491661;240;1255;-44
2021/05/09 04:53:02;;;;;;;;;;;18.00;45.40;;;;;;491058;241;1655;-44
2021/05/09 04:55:03;;;;;;;;;;;18.00;45.50;;;;;;491603;240;1006;-44
2021/05/09 04:57:04;;;;;;;;;;;18.00;45.40;;;;;;491493;240;2195;-44
2021/05/09 04:59:06;;;;;;;;;;;18.00;45.30;;;;;;491704;240;1029;-44
2021/05/09 05:01:08;;;;;;;;;;;18.00;45.40;;;;;;491890;240;1432;-44
2021/05/09 05:03:08;;;;;;;;;;;18.00;45.40;;;;;;491470;240;2271;-44
2021/05/09 05:05:10;;;;;;;;;;;18.00;45.40;;;;;;491967;240;1104;-44
2021/05/09 05:07:11;;;;;;;;;;;18.00;45.30;;;;;;491886;240;1148;-44
2021/05/09 05:09:14;;;;;;;;;;;18.00;45.30;;;;;;491484;240;1052;-44
2021/05/09 05:11:15;;;;;;;;;;;18.00;45.40;;;;;;491884;240;1203;-44
2021/05/09 05:13:16;;;;;;;;;;;18.00;45.40;;;;;;492062;240;1103;-44
2021/05/09 05:15:18;;;;;;;;;;;18.00;45.30;;;;;;491385;242;1712;-44
2021/05/09 05:17:19;;;;;;;;;;;18.00;45.40;;;;;;491700;240;2144;-44
2021/05/09 05:19:20;;;;;;;;;;;18.00;45.40;;;;;;491581;240;1111;-44
2021/05/09 05:21:21;;;;;;;;;;;18.00;45.40;;;;;;491534;240;1213;-43
2021/05/09 05:23:23;;;;;;;;;;;18.00;45.30;;;;;;492048;240;1113;-44
2021/05/09 05:25:24;;;;;;;;;;;18.00;45.30;;;;;;491602;240;1224;-44
2021/05/09 05:27:25;;;;;;;;;;;18.00;45.30;;;;;;491633;240;1264;-44
2021/05/09 05:29:26;;;;;;;;;;;18.00;45.30;;;;;;491534;242;1031;-44
2021/05/09 05:31:28;;;;;;;;;;;18.00;45.30;;;;;;491509;242;1403;-44
2021/05/09 05:33:29;;;;;;;;;;;18.00;45.30;;;;;;491797;240;1220;-44
2021/05/09 05:35:30;;;;;;;;;;;18.00;45.30;;;;;;491935;240;1094;-44
2021/05/09 05:37:32;;;;;;;;;;;18.00;45.30;;;;;;491278;241;2145;-44
2021/05/09 05:39:33;;;;;;;;;;;18.00;45.30;;;;;;492006;240;1097;-44
2021/05/09 05:41:35;;;;;;;;;;;18.00;45.30;;;;;;491683;240;1129;-44
2021/05/09 05:43:37;;;;;;;;;;;18.00;45.30;;;;;;491524;240;1032;-44
2021/05/09 05:45:38;;;;;;;;;;;18.00;45.20;;;;;;491530;240;1223;-44
2021/05/09 05:47:39;;;;;;;;;;;18.00;45.30;;;;;;491898;240;1154;-44
2021/05/09 05:49:41;;;;;;;;;;;18.00;45.30;;;;;;491737;240;1062;-44
2021/05/09 05:51:42;;;;;;;;;;;18.00;45.20;;;;;;491934;240;1106;-44
2021/05/09 05:53:43;;;;;;;;;;;18.00;45.20;;;;;;491555;242;1260;-44
2021/05/09 05:55:44;;;;;;;;;;;18.00;45.20;;;;;;491540;240;1377;-44
2021/05/09 05:57:46;;;;;;;;;;;18.00;45.40;;;;;;491455;240;2204;-44
2021/05/09 05:59:47;;;;;;;;;;;18.00;45.40;;;;;;491564;240;1111;-44
2021/05/09 06:01:49;;;;;;;;;;;18.00;45.30;;;;;;491472;240;1141;-44
2021/05/09 06:03:50;;;;;;;;;;;18.00;45.30;;;;;;491452;240;1076;-44
2021/05/09 06:05:54;;;;;;;;;;;18.00;45.30;;;;;;491505;240;1469;-44
2021/05/09 06:07:55;;;;;;;;;;;18.00;45.30;;;;;;491551;240;1346;-43
2021/05/09 06:09:56;;;;;;;;;;;18.00;45.30;;;;;;492009;240;1239;-44
2021/05/09 06:11:57;;;;;;;;;;;18.00;45.40;;;;;;491913;240;1310;-43
2021/05/09 06:13:59;;;;;;;;;;;18.00;45.40;;;;;;491762;240;1099;-44
2021/05/09 06:16:00;;;;;;;;;;;18.00;45.30;;;;;;491510;240;1229;-44
2021/05/09 06:18:01;;;;;;;;;;;18.00;45.30;;;;;;491554;240;2187;-44
2021/05/09 06:20:03;;;;;;;;;;;18.00;45.30;;;;;;491524;240;1028;-44
2021/05/09 06:22:04;;;;;;;;;;;18.00;45.30;;;;;;491948;240;1190;-44
2021/05/09 06:24:05;;;;;;;;;;;18.00;45.40;;;;;;491775;240;1099;-44
2021/05/09 06:26:06;;;;;;;;;;;17.90;45.40;;;;;;491767;240;1133;-44
2021/05/09 06:28:08;;;;;;;;;;;18.00;45.40;;;;;;491598;240;1177;-44
2021/05/09 06:30:09;;;;;;;;;;;17.90;45.40;;;;;;491983;240;1081;-44
2021/05/09 06:32:12;;;;;;;;;;;18.00;45.40;;;;;;491823;240;1132;-44
2021/05/09 06:34:16;;;;;;;;;;;18.00;45.30;;;;;;491608;240;1218;-44
2021/05/09 06:36:17;;;;;;;;;;;18.00;45.40;;;;;;491827;240;1172;-44
2021/05/09 06:38:18;;;;;;;;;;;18.00;45.30;;;;;;491515;240;2195;-44
2021/05/09 06:40:20;;;;;;;;;;;18.00;45.20;;;;;;491450;240;1259;-44
2021/05/09 06:42:21;;;;;;;;;;;18.00;45.20;;;;;;491465;240;1332;-44
2021/05/09 06:44:27;;;;;;;;;;;18.10;45.20;;;;;;491997;240;1075;-43
2021/05/09 06:46:26;;;;;;;;;;;18.00;45.20;;;;;;491484;240;2186;-44
2021/05/09 06:48:27;;;;;;;;;;;18.00;45.40;;;;;;491485;240;1079;-44
2021/05/09 06:50:28;;;;;;;;;;;18.00;45.30;;;;;;491619;240;1094;-44
2021/05/09 06:52:30;;;;;;;;;;;18.00;45.30;;;;;;491373;240;1138;-44
2021/05/09 06:54:31;;;;;;;;;;;18.00;45.20;;;;;;491756;240;1071;-44
2021/05/09 06:56:32;;;;;;;;;;;18.00;45.30;;;;;;491480;240;1334;-44
2021/05/09 06:58:34;;;;;;;;;;;18.00;45.30;;;;;;491477;240;2187;-44
2021/05/09 07:00:35;;;;;;;;;;;18.00;45.20;;;;;;492027;240;1058;-44
2021/05/09 07:02:36;;;;;;;;;;;18.10;45.20;;;;;;491431;240;1221;-44
2021/05/09 07:04:38;;;;;;;;;;;18.10;45.10;;;;;;491551;240;1069;-44
2021/05/09 07:06:39;;;;;;;;;;;18.10;45.10;;;;;;491381;240;1954;-44
2021/05/09 07:08:40;;;;;;;;;;;18.10;45.20;;;;;;491880;240;1047;-44
2021/05/09 07:10:41;;;;;;;;;;;18.10;45.10;;;;;;491929;242;1681;-44
2021/05/09 07:12:43;;;;;;;;;;;18.10;45.20;;;;;;491452;240;1273;-44
2021/05/09 07:14:44;;;;;;;;;;;18.10;45.20;;;;;;491625;240;1049;-44
2021/05/09 07:16:45;;;;;;;;;;;18.10;45.20;;;;;;491772;240;1495;-44
2021/05/09 07:18:47;;;;;;;;;;;18.10;45.20;;;;;;491677;240;2132;-44
2021/05/09 07:20:53;;;;;;;;;;;18.10;45.20;;;;;;491449;240;1100;-44
2021/05/09 07:22:54;;;;;;;;;;;18.00;45.20;;;;;;491549;240;1696;-44
2021/05/09 07:24:54;;;;;;;;;;;18.00;45.30;;;;;;491682;240;1990;-44
2021/05/09 07:26:56;;;;;;;;;;;18.00;45.30;;;;;;491739;240;1048;-44
2021/05/09 07:28:57;;;;;;;;;;;18.00;45.20;;;;;;491578;240;1165;-44
2021/05/09 07:31:00;;;;;;;;;;;18.00;45.20;;;;;;491712;240;1123;-44
2021/05/09 07:33:00;;;;;;;;;;;18.10;45.20;;;;;;491550;240;1908;-44
2021/05/09 07:35:01;;;;;;;;;;;18.00;45.20;;;;;;491650;240;1082;-44
2021/05/09 07:37:02;;;;;;;;;;;18.00;45.20;;;;;;491537;240;1192;-44
2021/05/09 07:39:04;;;;;;;;;;;18.00;45.30;;;;;;491487;240;2140;-44
2021/05/09 07:41:05;;;;;;;;;;;18.00;45.30;;;;;;491473;240;1124;-44
2021/05/09 07:43:07;;;;;;;;;;;18.00;45.20;;;;;;491403;240;1233;-44
2021/05/09 07:45:14;;;;;;;;;;;18.00;45.20;;;;;;491441;240;2293;-44
2021/05/09 07:47:09;;;;;;;;;;;18.00;45.20;;;;;;490807;241;1951;-44
2021/05/09 07:49:10;;;;;;;;;;;18.00;45.30;;;;;;491606;240;1094;-44
2021/05/09 07:51:12;;;;;;;;;;;18.00;45.20;;;;;;491446;240;1292;-44
2021/05/09 07:53:14;;;;;;;;;;;18.00;45.20;;;;;;491971;240;1073;-44
2021/05/09 07:55:14;;;;;;;;;;;18.00;45.30;;;;;;491532;240;2312;-44
2021/05/09 07:57:16;;;;;;;;;;;18.00;45.30;;;;;;491689;240;1175;-44
2021/05/09 07:59:17;;;;;;;;;;;18.00;45.30;;;;;;491691;240;2181;-44
2021/05/09 08:01:18;;;;;;;;;;;18.00;45.20;;;;;;491545;240;1222;-44
2021/05/09 08:03:20;;;;;;;;;;;18.00;45.20;;;;;;491228;240;1655;-44
2021/05/09 08:05:21;;;;;;;;;;;18.00;45.30;;;;;;491753;240;1213;-44
2021/05/09 08:07:22;;;;;;;;;;;18.00;45.40;;;;;;491472;240;1193;-44
2021/05/09 08:09:24;;;;;;;;;;;18.00;45.30;;;;;;491415;240;1114;-44
2021/05/09 08:11:25;;;;;;;;;;;18.00;45.20;;;;;;491614;240;1468;-44
2021/05/09 08:13:26;;;;;;;;;;;18.00;45.20;;;;;;491741;240;1060;-44
2021/05/09 08:15:28;;;;;;;;;;;18.00;45.20;;;;;;491435;240;1445;-44
2021/05/09 08:17:29;;;;;;;;;;;18.00;45.10;;;;;;491577;240;1180;-44
2021/05/09 08:19:31;;;;;;;;;;;18.10;45.20;;;;;;491928;240;2140;-44
2021/05/09 08:21:32;;;;;;;;;;;18.00;45.20;;;;;;491636;240;1129;-44
2021/05/09 08:23:35;;;;;;;;;;;18.00;45.20;;;;;;491680;240;1029;-44
2021/05/09 08:25:35;;;;;;;;;;;18.00;45.30;;;;;;491519;240;1827;-44
2021/05/09 08:27:36;;;;;;;;;;;18.00;45.20;;;;;;491730;240;1355;-44
2021/05/09 08:29:37;;;;;;;;;;;18.10;45.30;;;;;;491704;240;1180;-44
2021/05/09 08:31:39;;;;;;;;;;;18.00;45.20;;;;;;491923;240;1161;-44
2021/05/09 08:33:40;;;;;;;;;;;18.10;45.10;;;;;;491785;240;1096;-44
2021/05/09 08:35:41;;;;;;;;;;;18.10;45.20;;;;;;491623;240;1070;-44
2021/05/09 08:37:43;;;;;;;;;;;18.00;45.20;;;;;;491764;240;1284;-44
2021/05/09 08:39:44;;;;;;;;;;;18.10;45.10;;;;;;491491;240;2141;-44
2021/05/09 08:41:47;;;;;;;;;;;18.20;44.60;;;;;;491416;240;1240;-44
2021/05/09 08:43:47;;;;;;;;;;;18.20;44.70;;;;;;491632;240;2099;-44
2021/05/09 08:45:48;;;;;;;;;;;18.30;44.60;;;;;;491963;240;1167;-44
2021/05/09 08:47:50;;;;;;;;;;;18.30;44.60;;;;;;491552;240;1284;-44
2021/05/09 08:49:50;;;;;;;;;;;18.30;44.60;;;;;;491706;240;2060;-44
2021/05/09 08:51:52;;;;;;;;;;;18.20;44.60;;;;;;491757;240;1444;-44
2021/05/09 08:53:53;;;;;;;;;;;18.20;44.70;;;;;;491566;240;1042;-44
2021/05/09 08:55:54;;;;;;;;;;;18.20;44.90;;;;;;491676;240;1412;-44
2021/05/09 08:57:56;;;;;;;;;;;18.10;45.10;;;;;;492021;240;1222;-44
2021/05/09 08:59:57;;;;;;;;;;;18.00;45.20;;;;;;491583;240;2109;-44
2021/05/09 09:01:58;;;;;;;;;;;17.90;45.40;;;;;;491526;240;1234;-44
2021/05/09 09:03:59;;;;;;;;;;;17.80;45.60;;;;;;491698;240;1180;-44
2021/05/09 09:06:03;;;;;;;;;;;17.80;45.80;;;;;;491464;240;1134;-44
2021/05/09 09:08:02;;;;;;;;;;;17.80;45.90;;;;;;491553;240;1336;-44
2021/05/09 09:10:03;;;;;;;;;;;17.80;45.80;;;;;;491401;240;1062;-43
2021/05/09 09:12:05;;;;;;;;;;;17.80;45.80;;;;;;491671;240;1153;-44
2021/05/09 09:14:06;;;;;;;;;;;17.90;45.70;;;;;;491636;240;1192;-44
2021/05/09 09:16:07;;;;;;;;;;;17.80;45.70;;;;;;491585;240;1242;-44
2021/05/09 09:18:09;;;;;;;;;;;17.80;45.70;;;;;;491956;240;1267;-44
2021/05/09 09:20:13;;;;;;;;;;;17.80;45.80;;;;;;491811;240;1057;-44
2021/05/09 09:22:14;;;;;;;;;;;17.80;45.80;;;;;;491478;240;1963;-44
2021/05/09 09:24:16;;;;;;;;;;;17.80;45.80;;;;;;491654;240;1136;-44
2021/05/09 09:26:18;;;;;;;;;;;17.70;45.90;;;;;;491666;240;1320;-44
2021/05/09 09:28:20;;;;;;;;;;;17.70;46.00;;;;;;491628;240;1098;-44
2021/05/09 09:30:20;;;;;;;;;;;17.60;46.00;;;;;;491481;240;1841;-44
2021/05/09 09:32:21;;;;;;;;;;;17.70;46.00;;;;;;491658;240;2177;-44
2021/05/09 09:34:23;;;;;;;;;;;17.70;46.10;;;;;;491432;240;1101;-44
2021/05/09 09:36:24;;;;;;;;;;;17.60;46.10;;;;;;491499;240;1109;-43
2021/05/09 09:38:26;;;;;;;;;;;17.60;46.20;;;;;;491956;242;2129;-44
2021/05/09 09:40:27;;;;;;;;;;;17.60;46.20;;;;;;491545;240;1130;-44
2021/05/09 09:42:28;;;;;;;;;;;17.60;46.10;;;;;;491489;240;1381;-44
2021/05/09 09:44:31;;;;;;;;;;;17.70;46.00;;;;;;491737;240;1185;-44
2021/05/09 09:46:31;;;;;;;;;;;17.70;46.00;;;;;;491518;241;1525;-44
2021/05/09 09:48:32;;;;;;;;;;;17.60;46.10;;;;;;491762;240;1095;-44
2021/05/09 09:50:34;;;;;;;;;;;17.60;46.10;;;;;;491577;240;1073;-44
2021/05/09 09:52:35;;;;;;;;;;;17.60;46.10;;;;;;491499;240;1396;-44
2021/05/09 09:54:36;;;;;;;;;;;17.60;46.00;;;;;;491700;240;1052;-44
2021/05/09 09:56:37;;;;;;;;;;;17.60;46.10;;;;;;491713;240;1371;-44
2021/05/09 09:58:40;;;;;;;;;;;17.60;46.20;;;;;;491825;240;2203;-44
2021/05/09 10:00:42;;;;;;;;;;;17.60;46.20;;;;;;491432;240;1216;-44
2021/05/09 10:02:49;;;;;;;;;;;17.60;46.30;;;;;;491429;240;1305;-44
2021/05/09 10:04:50;;;;;;;;;;;17.60;46.10;;;;;;491563;240;1049;-44
2021/05/09 10:06:51;;;;;;;;;;;17.60;46.10;;;;;;491519;240;1185;-44
2021/05/09 10:08:52;;;;;;;;;;;17.60;46.30;;;;;;491906;240;1079;-44
2021/05/09 10:10:54;;;;;;;;;;;17.50;46.20;;;;;;491908;242;1355;-44
2021/05/09 10:12:55;;;;;;;;;;;17.50;46.20;;;;;;492040;240;1074;-44
2021/05/09 10:14:56;;;;;;;;;;;17.50;46.30;;;;;;491861;240;1152;-43
2021/05/09 10:16:58;;;;;;;;;;;17.50;46.20;;;;;;491536;240;1501;-44
2021/05/09 10:18:59;;;;;;;;;;;17.60;46.30;;;;;;491644;240;2141;-44
2021/05/09 10:21:01;;;;;;;;;;;17.60;46.20;;;;;;491440;242;1387;-44
2021/05/09 10:23:02;;;;;;;;;;;17.50;46.10;;;;;;491595;242;1802;-44
2021/05/09 10:25:03;;;;;;;;;;;17.50;46.20;;;;;;491509;240;1149;-44
2021/05/09 10:27:06;;;;;;;;;;;17.50;46.30;;;;;;491480;240;1206;-44
2021/05/09 10:29:06;;;;;;;;;;;17.40;46.30;;;;;;491479;240;1574;-44
2021/05/09 10:31:07;;;;;;;;;;;17.50;46.40;;;;;;491599;240;1286;-44
2021/05/09 10:33:08;;;;;;;;;;;17.50;46.30;;;;;;491872;240;1080;-44
2021/05/09 10:35:10;;;;;;;;;;;17.90;45.40;;;;;;491757;240;1042;-44
2021/05/09 10:37:11;;;;;;;;;;;18.30;44.40;;;;;;491536;240;1057;-44
2021/05/09 10:39:14;;;;;;;;;;;18.70;43.70;;;;;;491968;240;2137;-44
2021/05/09 10:41:15;;;;;;;;;;;18.80;43.20;;;;;;491270;241;1723;-44
2021/05/09 10:43:18;;;;;;;;;;;19.00;42.90;;;;;;491826;240;1073;-44
2021/05/09 10:45:18;;;;;;;;;;;19.10;42.60;;;;;;491811;240;2577;-44
2021/05/09 10:47:31;;;;;;;;;;;19.20;42.40;;;;;;491595;240;1037;-44
2021/05/09 10:49:21;;;;;;;;;;;19.30;42.20;;;;;;491574;240;2255;-44
2021/05/09 10:51:22;;;;;;;;;;;19.40;42.10;;;;;;491557;240;1079;-44
2021/05/09 10:53:23;;;;;;;;;;;19.40;41.90;;;;;;491736;240;1049;-44
2021/05/09 10:55:25;;;;;;;;;;;19.50;41.80;;;;;;491624;240;1075;-44
2021/05/09 10:57:28;;;;;;;;;;;19.50;41.70;;;;;;491527;240;1095;-44
2021/05/09 10:59:29;;;;;;;;;;;19.60;41.60;;;;;;492052;240;2199;-44
2021/05/09 11:01:34;;;;;;;;;;;19.60;41.50;;;;;;491565;240;1189;-44
2021/05/09 11:03:35;;;;;;;;;;;19.60;41.50;;;;;;491721;240;1413;-44
2021/05/09 11:05:36;;;;;;;;;;;19.70;41.40;;;;;;492071;240;988;-44
2021/05/09 11:07:37;;;;;;;;;;;19.70;41.30;;;;;;491602;240;1184;-44
2021/05/09 11:09:43;;;;;;;;;;;19.80;41.30;;;;;;491698;240;1059;-44
2021/05/09 11:11:40;;;;;;;;;;;19.80;41.20;;;;;;491856;240;2124;-44
2021/05/09 11:13:41;;;;;;;;;;;19.80;41.10;;;;;;491322;241;1288;-44
2021/05/09 11:15:44;;;;;;;;;;;19.90;41.10;;;;;;491819;240;1255;-44
2021/05/09 11:17:45;;;;;;;;;;;19.90;41.00;;;;;;491503;240;1169;-44
2021/05/09 11:19:48;;;;;;;;;;;20.00;41.00;;;;;;491067;241;2207;-44
2021/05/09 11:21:49;;;;;;;;;;;20.00;40.90;;;;;;491448;240;2152;-44
2021/05/09 11:23:51;;;;;;;;;;;20.00;40.80;;;;;;491675;240;1125;-44
2021/05/09 11:25:51;;;;;;;;;;;20.00;40.80;;;;;;491569;240;1966;-44
2021/05/09 11:27:52;;;;;;;;;;;20.10;40.80;;;;;;491517;240;1222;-44
2021/05/09 11:29:54;;;;;;;;;;;20.10;40.70;;;;;;491651;240;1226;-44
2021/05/09 11:31:56;;;;;;;;;;;20.20;40.70;;;;;;491668;240;1283;-44
2021/05/09 11:33:57;;;;;;;;;;;20.20;40.60;;;;;;491437;240;1089;-44
2021/05/09 11:35:59;;;;;;;;;;;20.20;40.60;;;;;;491875;240;1148;-44
2021/05/09 11:38:00;;;;;;;;;;;20.20;40.60;;;;;;492064;240;1046;-44
2021/05/09 11:40:01;;;;;;;;;;;20.20;40.50;;;;;;491644;240;2133;-44
2021/05/09 11:42:02;;;;;;;;;;;20.20;40.50;;;;;;491447;240;1103;-44
2021/05/09 11:44:04;;;;;;;;;;;20.20;40.50;;;;;;491502;240;1228;-44
2021/05/09 11:46:05;;;;;;;;;;;20.40;40.30;;;;;;491557;240;1389;-44
2021/05/09 11:48:07;;;;;;;;;;;20.20;40.70;;;;;;491474;240;1152;-44
2021/05/09 11:50:12;;;;;;;;;;;19.70;41.60;;;;;;491645;240;1231;-44
2021/05/09 11:52:18;;;;;;;;;;;19.30;42.50;;;;;;491443;240;1190;-44
2021/05/09 11:54:15;;;;;;;;;;;19.00;43.10;;;;;;492073;240;1299;-44
2021/05/09 11:56:19;;;;;;;;;;;18.80;43.70;;;;;;491773;242;1473;-44
2021/05/09 11:58:19;;;;;;;;;;;18.70;44.00;;;;;;491518;240;1811;-44